createdAt,value
2022-08-16T00:01:34.213Z,14.80
2022-08-16T00:04:10.560Z,9.32
2022-08-16T00:06:53.174Z,10.27
2022-08-16T00:09:26.718Z,15.43
2022-08-16T00:12:17.814Z,13.02
2022-08-16T00:15:05.531Z,14.02
2022-08-16T00:17:56.003Z,17.40
2022-08-16T00:20:25.040Z,12.52
2022-08-16T00:22:52.191Z,14.07
2022-08-16T00:26:33.364Z,11.63
2022-08-16T00:28:09.207Z,13.13
2022-08-16T00:30:38.323Z,14.53
2022-08-16T00:33:06.167Z,15.32
2022-08-16T00:35:37.513Z,14.52
2022-08-16T00:38:43.312Z,15.00
2022-08-16T00:40:54.810Z,17.77
2022-08-16T00:43:40.790Z,16.25
2022-08-16T00:46:35.512Z,14.18
2022-08-16T00:49:17.618Z,15.60
2022-08-16T00:51:46.267Z,12.27
2022-08-16T00:54:13.333Z,12.90
2022-08-16T00:56:58.480Z,13.27
2022-08-16T00:59:29.001Z,14.25
2022-08-16T01:01:56.154Z,10.98
2022-08-16T01:04:30.056Z,14.40
2022-08-16T01:07:01.744Z,14.10
2022-08-16T01:09:33.831Z,12.52
2022-08-16T01:12:03.205Z,13.02
2022-08-16T01:19:34.894Z,13.40
2022-08-16T01:22:48.140Z,14.52
2022-08-16T01:25:06.759Z,15.82
2022-08-16T01:27:39.193Z,12.38
2022-08-16T01:30:20.084Z,13.13
2022-08-16T01:33:01.166Z,13.38
2022-08-16T01:35:35.365Z,16.27
2022-08-16T01:38:19.732Z,17.63
2022-08-16T01:40:47.812Z,14.80
2022-08-16T01:43:14.666Z,16.75
2022-08-16T01:45:43.339Z,12.32
2022-08-16T01:48:19.810Z,16.70
2022-08-16T01:51:09.680Z,11.18
2022-08-16T01:53:36.467Z,13.57
2022-08-16T01:56:07.483Z,14.40
2022-08-16T01:58:50.287Z,11.52
2022-08-16T02:01:18.149Z,14.10
2022-08-16T02:03:45.184Z,14.82
2022-08-16T02:06:33.783Z,16.50
2022-08-16T02:09:02.440Z,12.90
2022-08-16T02:11:48.871Z,14.40
2022-08-16T02:14:21.639Z,15.52
2022-08-16T02:19:17.534Z,12.60
2022-08-16T02:22:08.943Z,13.25
2022-08-16T02:24:41.997Z,12.38
2022-08-16T02:27:12.589Z,11.88
2022-08-16T02:29:41.254Z,12.77
2022-08-16T02:32:50.678Z,14.90
2022-08-16T02:34:57.231Z,13.35
2022-08-16T02:37:23.762Z,13.15
2022-08-16T02:40:12.058Z,14.30
2022-08-16T02:42:45.191Z,12.82
2022-08-16T02:45:12.611Z,17.08
2022-08-16T02:48:01.367Z,18.85
2022-08-16T02:50:54.376Z,13.55
2022-08-16T02:53:12.944Z,13.88
2022-08-16T02:55:41.332Z,13.98
2022-08-16T02:58:08.661Z,16.90
2022-08-16T03:00:36.160Z,15.30
2022-08-16T03:03:04.566Z,16.70
2022-08-16T03:05:37.163Z,19.27
2022-08-16T03:08:05.267Z,20.77
2022-08-16T03:10:52.773Z,16.52
2022-08-16T03:13:20.638Z,18.73
2022-08-16T03:15:49.569Z,16.03
2022-08-16T03:18:34.250Z,19.65
2022-08-16T03:21:04.338Z,13.45
2022-08-16T03:23:35.569Z,16.42
2022-08-16T03:26:02.731Z,15.85
2022-08-16T03:28:29.245Z,15.93
2022-08-16T03:30:56.924Z,13.27
2022-08-16T03:33:23.892Z,18.80
2022-08-16T03:35:57.175Z,16.05
2022-08-16T03:38:34.445Z,16.02
2022-08-16T03:41:03.350Z,17.38
2022-08-16T03:43:51.085Z,14.82
2022-08-16T03:46:44.383Z,20.58
2022-08-16T03:49:10.728Z,17.58
2022-08-16T03:51:40.303Z,20.25
2022-08-16T03:54:10.371Z,18.48
2022-08-16T03:56:39.489Z,16.75
2022-08-16T03:59:24.060Z,19.60
2022-08-16T04:01:53.612Z,19.60
2022-08-16T04:04:32.617Z,14.18
2022-08-16T04:07:03.366Z,16.55
2022-08-16T04:09:35.381Z,15.02
2022-08-16T04:12:11.246Z,14.15
2022-08-16T04:14:51.715Z,15.95
2022-08-16T04:17:18.441Z,16.45
2022-08-16T04:19:46.582Z,15.13
2022-08-16T04:22:13.781Z,13.65
2022-08-16T04:24:43.746Z,17.48
2022-08-16T04:27:21.107Z,15.90
2022-08-16T04:29:47.593Z,15.35
2022-08-16T04:32:19.633Z,15.52
2022-08-16T04:34:47.005Z,15.13
2022-08-16T04:37:14.545Z,16.00
2022-08-16T04:39:46.938Z,15.07
2022-08-16T04:42:25.808Z,17.73
2022-08-16T04:44:55.482Z,14.32
2022-08-16T04:50:14.438Z,17.33
2022-08-16T04:52:44.294Z,15.45
2022-08-16T04:55:15.763Z,15.85
2022-08-16T04:57:44.218Z,14.43
2022-08-16T05:00:31.041Z,18.10
2022-08-16T05:03:02.918Z,20.30
2022-08-16T05:05:55.560Z,18.98
2022-08-16T05:08:27.961Z,19.20
2022-08-16T05:11:05.209Z,17.17
2022-08-16T05:13:40.277Z,20.98
2022-08-16T05:16:12.036Z,21.48
2022-08-16T05:18:47.973Z,21.23
2022-08-16T05:21:14.831Z,20.65
2022-08-16T05:23:43.422Z,21.95
2022-08-16T05:26:19.882Z,18.95
2022-08-16T05:28:55.615Z,16.92
2022-08-16T05:31:23.967Z,14.55
2022-08-16T05:33:56.746Z,15.45
2022-08-16T05:36:23.282Z,16.67
2022-08-16T05:39:01.329Z,16.63
2022-08-16T05:41:29.186Z,15.23
2022-08-16T05:44:00.213Z,16.33
2022-08-16T05:46:32.061Z,14.75
2022-08-16T05:49:05.849Z,15.80
2022-08-16T05:51:38.456Z,14.90
2022-08-16T05:54:06.008Z,11.27
2022-08-16T05:56:32.530Z,11.63
2022-08-16T05:59:00.769Z,13.60
2022-08-16T06:01:28.079Z,11.63
2022-08-16T06:03:59.701Z,11.85
2022-08-16T06:06:28.954Z,12.27
2022-08-16T06:08:55.869Z,12.93
2022-08-16T06:11:22.389Z,13.73
2022-08-16T06:13:52.183Z,13.68
2022-08-16T06:16:22.207Z,13.68
2022-08-16T06:18:53.724Z,11.27
2022-08-16T06:21:22.733Z,10.43
2022-08-16T06:23:51.120Z,9.98
2022-08-16T06:26:21.552Z,11.70
2022-08-16T06:28:48.215Z,11.13
2022-08-16T06:31:16.755Z,10.23
2022-08-16T06:33:44.631Z,8.73
2022-08-16T06:36:14.195Z,11.43
2022-08-16T06:38:55.805Z,8.25
2022-08-16T06:41:24.305Z,12.07
2022-08-16T06:43:54.210Z,10.95
2022-08-16T06:46:31.753Z,15.23
2022-08-16T06:48:59.446Z,10.77
2022-08-16T06:51:26.012Z,9.48
2022-08-16T06:54:14.265Z,9.88
2022-08-16T06:56:42.415Z,11.45
2022-08-16T06:59:09.322Z,11.52
2022-08-16T07:01:46.239Z,12.40
2022-08-16T07:04:31.650Z,8.23
2022-08-16T07:06:59.674Z,13.00
2022-08-16T07:09:26.333Z,8.07
2022-08-16T07:11:56.407Z,10.43
2022-08-16T07:14:30.652Z,10.15
2022-08-16T07:16:59.201Z,13.57
2022-08-16T07:19:33.508Z,8.82
2022-08-16T07:22:38.139Z,8.65
2022-08-16T07:25:12.144Z,11.50
2022-08-16T07:27:39.408Z,10.77
2022-08-16T07:30:45.923Z,11.15
2022-08-16T07:32:57.609Z,12.00
2022-08-16T07:35:25.296Z,8.18
2022-08-16T07:37:52.444Z,14.10
2022-08-16T07:40:31.921Z,9.73
2022-08-16T07:43:06.139Z,12.32
2022-08-16T07:45:34.758Z,10.73
2022-08-16T07:48:11.479Z,7.97
2022-08-16T07:50:57.730Z,12.00
2022-08-16T07:53:28.802Z,9.30
2022-08-16T07:55:56.519Z,10.05
2022-08-16T07:58:33.913Z,8.43
2022-08-16T08:01:10.069Z,16.13
2022-08-16T08:03:39.317Z,23.98
2022-08-16T08:06:10.238Z,9.50
2022-08-16T08:08:50.777Z,11.55
2022-08-16T08:11:19.595Z,8.63
2022-08-16T08:13:47.951Z,12.18
2022-08-16T08:16:18.542Z,8.10
2022-08-16T08:18:50.322Z,9.80
2022-08-16T08:21:26.386Z,13.32
2022-08-16T08:23:56.491Z,19.13
2022-08-16T08:26:24.350Z,11.60
2022-08-16T08:28:51.491Z,11.73
2022-08-16T08:31:18.554Z,12.93
2022-08-16T08:33:51.301Z,11.52
2022-08-16T08:36:33.558Z,34.20
2022-08-16T08:39:00.727Z,10.13
2022-08-16T08:41:29.435Z,9.52
2022-08-16T08:43:57.937Z,10.90
2022-08-16T08:46:25.464Z,11.30
2022-08-16T08:48:59.886Z,8.80
2022-08-16T08:51:35.916Z,11.38
2022-08-16T08:54:09.509Z,10.75
2022-08-16T08:56:37.775Z,10.35
2022-08-16T08:59:20.176Z,11.57
2022-08-16T09:01:56.557Z,8.70
2022-08-16T09:04:26.989Z,8.43
2022-08-16T09:06:54.433Z,9.23
2022-08-16T09:09:22.130Z,7.78
2022-08-16T09:11:53.450Z,7.72
2022-08-16T09:14:49.686Z,9.70
2022-08-16T09:20:16.622Z,6.88
2022-08-16T09:22:44.064Z,9.95
2022-08-16T09:25:23.040Z,7.88
2022-08-16T09:27:58.081Z,6.22
2022-08-16T09:30:33.642Z,7.88
2022-08-16T09:33:06.754Z,6.82
2022-08-16T09:35:38.632Z,8.80
2022-08-16T09:38:08.362Z,6.65
2022-08-16T09:40:43.269Z,6.80
2022-08-16T09:43:46.323Z,6.43
2022-08-16T09:46:00.013Z,7.78
2022-08-16T09:48:36.955Z,8.45
2022-08-16T09:51:13.917Z,5.60
2022-08-16T09:53:41.101Z,10.73
2022-08-16T09:56:26.571Z,7.15
2022-08-16T09:59:03.935Z,7.70
2022-08-16T10:01:36.471Z,8.40
2022-08-16T10:04:29.981Z,9.07
2022-08-16T10:06:55.642Z,5.53
2022-08-16T10:09:25.226Z,9.48
2022-08-16T10:12:11.564Z,9.00
2022-08-16T10:14:46.220Z,6.80
2022-08-16T10:17:13.242Z,8.35
2022-08-16T10:19:39.787Z,12.38
2022-08-16T10:22:06.316Z,6.90
2022-08-16T10:24:33.705Z,7.20
2022-08-16T10:27:25.602Z,6.85
2022-08-16T10:30:00.556Z,7.80
2022-08-16T10:32:33.073Z,6.78
2022-08-16T10:35:00.349Z,8.73
2022-08-16T10:37:32.557Z,10.48
2022-08-16T10:40:04.700Z,8.55
2022-08-16T10:42:31.296Z,6.07
2022-08-16T10:44:57.829Z,8.38
2022-08-16T10:47:24.454Z,6.13
2022-08-16T10:49:51.615Z,5.57
2022-08-16T10:52:20.073Z,6.93
2022-08-16T10:57:34.984Z,6.82
2022-08-16T11:00:06.545Z,7.18
2022-08-16T11:02:58.007Z,7.47
2022-08-16T11:05:58.664Z,7.00
2022-08-16T11:08:16.384Z,7.50
2022-08-16T11:11:05.217Z,6.47
2022-08-16T11:17:00.741Z,8.25
2022-08-16T11:19:12.573Z,6.93
2022-08-16T11:24:42.019Z,6.32
2022-08-16T11:27:23.612Z,5.53
2022-08-16T11:29:55.091Z,9.38
2022-08-16T11:32:32.443Z,8.10
2022-08-16T11:35:13.824Z,4.50
2022-08-16T11:40:38.810Z,6.88
2022-08-16T11:43:10.098Z,6.07
2022-08-16T11:45:37.722Z,6.70
2022-08-16T11:48:05.082Z,7.78
2022-08-16T11:50:33.822Z,5.15
2022-08-16T11:53:06.106Z,7.30
2022-08-16T11:55:38.194Z,6.55
2022-08-16T11:58:07.135Z,5.60
2022-08-16T12:00:51.040Z,6.70
2022-08-16T12:03:24.966Z,6.80
2022-08-16T12:08:27.302Z,5.70
2022-08-16T12:10:54.230Z,5.18
2022-08-16T12:13:26.961Z,4.78
2022-08-16T12:15:53.721Z,6.57
2022-08-16T12:18:21.560Z,6.85
2022-08-16T12:20:48.219Z,6.43
2022-08-16T12:23:15.114Z,6.60
2022-08-16T12:25:44.793Z,6.40
2022-08-16T12:28:12.769Z,9.00
2022-08-16T12:30:44.882Z,8.15
2022-08-16T12:33:25.493Z,8.90
2022-08-16T12:35:53.131Z,9.20
2022-08-16T12:38:41.173Z,5.35
2022-08-16T12:41:06.747Z,3.83
2022-08-16T12:43:34.953Z,6.72
2022-08-16T12:46:02.597Z,6.32
2022-08-16T12:48:50.320Z,8.30
2022-08-16T12:51:24.179Z,8.43
2022-08-16T12:53:58.124Z,7.57
2022-08-16T12:56:28.411Z,8.68
2022-08-16T12:58:57.732Z,6.35
2022-08-16T13:01:28.997Z,5.35
2022-08-16T13:04:20.389Z,6.72
2022-08-16T13:06:45.199Z,8.00
2022-08-16T13:09:21.489Z,6.93
2022-08-16T13:12:01.687Z,6.88
2022-08-16T13:14:38.052Z,4.97
2022-08-16T13:17:09.487Z,7.30
2022-08-16T13:20:06.199Z,5.63
2022-08-16T13:22:25.341Z,5.82
2022-08-16T13:24:53.671Z,9.30
2022-08-16T13:28:01.978Z,11.90
2022-08-16T13:30:21.857Z,3.70
2022-08-16T13:32:55.859Z,8.35
2022-08-16T13:35:23.952Z,4.80
2022-08-16T13:37:52.217Z,4.47
2022-08-16T13:40:21.220Z,3.92
2022-08-16T13:42:49.618Z,4.17
2022-08-16T13:45:17.115Z,4.05
2022-08-16T13:47:46.105Z,6.57
2022-08-16T13:50:17.387Z,6.47
2022-08-16T13:52:58.726Z,7.30
2022-08-16T13:55:25.385Z,8.88
2022-08-16T13:58:37.757Z,5.88
2022-08-16T14:00:42.344Z,8.90
2022-08-16T14:03:09.322Z,9.80
2022-08-16T14:05:37.643Z,4.65
2022-08-16T14:08:04.205Z,5.55
2022-08-16T14:10:32.338Z,7.75
2022-08-16T14:13:00.950Z,6.47
2022-08-16T14:15:29.202Z,7.65
2022-08-16T14:18:23.345Z,5.30
2022-08-16T14:20:48.645Z,5.93
2022-08-16T14:23:23.663Z,4.05
2022-08-16T14:25:54.280Z,5.00
2022-08-16T14:28:21.928Z,4.60
2022-08-16T14:30:50.707Z,5.07
2022-08-16T14:33:18.710Z,6.75
2022-08-16T14:35:48.840Z,8.23
2022-08-16T14:38:24.038Z,7.20
2022-08-16T14:40:55.504Z,5.47
2022-08-16T14:43:24.860Z,6.28
2022-08-16T14:45:51.626Z,6.95
2022-08-16T14:48:25.902Z,7.25
2022-08-16T14:50:54.154Z,6.00
2022-08-16T14:55:49.535Z,5.60
2022-08-16T14:58:18.894Z,5.75
2022-08-16T15:00:47.778Z,7.63
2022-08-16T15:03:21.724Z,4.20
2022-08-16T15:05:49.790Z,6.20
2022-08-16T15:08:21.379Z,6.50
2022-08-16T15:11:03.637Z,4.70
2022-08-16T15:13:30.169Z,5.15
2022-08-16T15:16:02.275Z,9.18
2022-08-16T15:18:31.778Z,6.88
2022-08-16T15:20:59.946Z,6.05
2022-08-16T15:23:28.361Z,6.80
2022-08-16T15:26:02.998Z,7.53
2022-08-16T15:28:32.671Z,6.40
2022-08-16T15:33:43.594Z,5.97
2022-08-16T15:36:18.075Z,7.97
2022-08-16T15:39:02.360Z,11.27
2022-08-16T15:41:43.052Z,10.38
2022-08-16T15:44:21.142Z,7.25
2022-08-16T15:49:34.762Z,8.77
2022-08-16T15:52:12.097Z,5.90
2022-08-16T15:54:51.492Z,6.75
2022-08-16T15:57:19.760Z,6.43
2022-08-16T15:59:52.434Z,4.68
2022-08-16T16:02:29.348Z,10.95
2022-08-16T16:05:00.936Z,12.07
2022-08-16T16:07:30.307Z,7.68
2022-08-16T16:09:58.900Z,9.15
2022-08-16T16:12:51.019Z,6.10
2022-08-16T16:15:17.657Z,10.48
2022-08-16T16:17:44.193Z,8.88
2022-08-16T16:20:18.240Z,9.27
2022-08-16T16:22:46.628Z,8.68
2022-08-16T16:25:15.842Z,8.20
2022-08-16T16:27:44.185Z,8.70
2022-08-16T16:30:37.440Z,7.95
2022-08-16T16:33:01.729Z,6.10
2022-08-16T16:35:32.739Z,5.13
2022-08-16T16:37:59.978Z,9.25
2022-08-16T16:40:32.554Z,7.30
2022-08-16T16:43:00.063Z,8.38
2022-08-16T16:45:34.716Z,9.35
2022-08-16T16:48:12.275Z,6.18
2022-08-16T16:50:44.450Z,13.35
2022-08-16T16:53:16.778Z,7.18
2022-08-16T16:55:51.878Z,4.00
2022-08-16T16:58:43.383Z,8.15
2022-08-16T17:01:20.436Z,7.45
2022-08-16T17:03:53.671Z,6.47
2022-08-16T17:06:20.775Z,10.75
2022-08-16T17:08:47.649Z,6.00
2022-08-16T17:11:16.064Z,6.30
2022-08-16T17:13:44.661Z,5.43
2022-08-16T17:16:17.121Z,5.88
2022-08-16T17:19:16.626Z,6.05
2022-08-16T17:21:34.383Z,6.65
2022-08-16T17:24:18.322Z,4.95
2022-08-16T17:26:48.755Z,4.90
2022-08-16T17:29:15.851Z,8.18
2022-08-16T17:31:43.508Z,7.28
2022-08-16T17:34:29.224Z,6.60
2022-08-16T17:37:00.623Z,5.90
2022-08-16T17:39:32.863Z,6.13
2022-08-16T17:42:02.034Z,4.35
2022-08-16T17:46:55.236Z,4.82
2022-08-16T17:49:22.499Z,5.07
2022-08-16T17:51:49.065Z,7.10
2022-08-16T17:54:21.411Z,5.53
2022-08-16T17:57:00.490Z,5.35
2022-08-16T17:59:28.444Z,5.88
2022-08-16T18:01:56.239Z,5.15
2022-08-16T18:04:48.913Z,6.35
2022-08-16T18:07:10.742Z,4.40
2022-08-16T18:09:41.019Z,5.88
2022-08-16T18:12:45.055Z,3.97
2022-08-16T18:15:07.622Z,5.68
2022-08-16T18:17:34.427Z,8.15
2022-08-16T18:20:01.030Z,10.60
2022-08-16T18:22:30.959Z,5.45
2022-08-16T18:24:58.410Z,6.07
2022-08-16T18:27:27.247Z,6.88
2022-08-16T18:32:23.162Z,6.43
2022-08-16T18:34:52.775Z,5.32
2022-08-16T18:37:21.587Z,4.72
2022-08-16T18:39:48.177Z,9.95
2022-08-16T18:42:14.913Z,8.30
2022-08-16T18:44:44.123Z,8.85
2022-08-16T18:47:11.193Z,6.75
2022-08-16T18:49:37.799Z,6.35
2022-08-16T18:52:04.942Z,9.30
2022-08-16T18:54:33.654Z,7.80
2022-08-16T18:57:03.487Z,5.30
2022-08-16T18:59:33.214Z,5.68
2022-08-16T19:02:04.334Z,5.38
2022-08-16T19:04:56.838Z,5.75
2022-08-16T19:07:30.473Z,8.82
2022-08-16T19:09:58.207Z,10.85
2022-08-16T19:12:37.758Z,11.65
2022-08-16T19:15:14.417Z,6.93
2022-08-16T19:17:44.004Z,5.45
2022-08-16T19:20:11.760Z,7.05
2022-08-16T19:23:02.138Z,7.07
2022-08-16T19:25:46.770Z,7.35
2022-08-16T19:28:33.327Z,8.68
2022-08-16T19:31:05.722Z,8.93
2022-08-16T19:33:32.673Z,5.80
2022-08-16T19:35:59.696Z,9.32
2022-08-16T19:38:27.691Z,8.30
2022-08-16T19:40:54.298Z,11.55
2022-08-16T19:43:21.998Z,10.88
2022-08-16T19:45:49.193Z,9.25
2022-08-16T19:48:15.725Z,10.43
2022-08-16T19:50:42.279Z,8.10
2022-08-16T19:53:19.281Z,9.80
2022-08-16T19:55:47.330Z,8.75
2022-08-16T19:58:15.477Z,9.32
2022-08-16T20:00:43.514Z,8.10
2022-08-16T20:03:16.014Z,6.90
2022-08-16T20:05:43.825Z,10.27
2022-08-16T20:08:11.531Z,7.10
2022-08-16T20:10:40.861Z,9.82
2022-08-16T20:13:12.987Z,5.90
2022-08-16T20:15:40.958Z,10.23
2022-08-16T20:18:17.237Z,10.40
2022-08-16T20:20:51.617Z,10.20
2022-08-16T20:23:24.802Z,9.70
2022-08-16T20:25:55.856Z,10.05
2022-08-16T20:28:40.633Z,8.07
2022-08-16T20:31:11.466Z,8.93
2022-08-16T20:33:38.008Z,6.45
2022-08-16T20:36:04.559Z,13.75
2022-08-16T20:38:31.165Z,9.73
2022-08-16T20:40:57.828Z,10.23
2022-08-16T20:43:24.377Z,9.02
2022-08-16T20:45:50.852Z,6.90
2022-08-16T20:48:17.340Z,11.15
2022-08-16T20:50:45.032Z,9.77
2022-08-16T20:53:11.850Z,11.80
2022-08-16T20:55:40.066Z,11.43
2022-08-16T20:58:06.633Z,10.38
2022-08-16T21:00:33.626Z,8.05
2022-08-16T21:03:01.364Z,7.95
2022-08-16T21:05:31.761Z,9.52
2022-08-16T21:07:58.433Z,7.03
2022-08-16T21:10:24.989Z,10.55
2022-08-16T21:13:02.855Z,9.00
2022-08-16T21:15:32.758Z,9.55
2022-08-16T21:17:59.945Z,9.70
2022-08-16T21:20:28.010Z,9.73
2022-08-16T21:23:03.504Z,8.93
2022-08-16T21:25:34.858Z,9.02
2022-08-16T21:28:38.990Z,13.00
2022-08-16T21:30:50.101Z,10.13
2022-08-16T21:33:18.553Z,9.30
2022-08-16T21:35:47.037Z,8.50
2022-08-16T21:38:28.696Z,10.60
2022-08-16T21:40:57.186Z,7.55
2022-08-16T21:43:25.349Z,8.80
2022-08-16T21:45:56.014Z,10.15
2022-08-16T21:48:34.683Z,9.20
2022-08-16T21:51:08.320Z,8.90
2022-08-16T21:53:35.365Z,9.27
2022-08-16T21:56:02.792Z,7.82
2022-08-16T21:58:30.756Z,11.55
2022-08-16T22:00:57.547Z,11.43
2022-08-16T22:03:24.359Z,9.05
2022-08-16T22:05:59.931Z,9.02
2022-08-16T22:08:46.733Z,9.40
2022-08-16T22:11:18.362Z,7.18
2022-08-16T22:13:56.457Z,10.88
2022-08-16T22:16:27.046Z,8.82
2022-08-16T22:18:53.697Z,9.13
2022-08-16T22:21:20.438Z,9.45
2022-08-16T22:23:57.735Z,13.10
2022-08-16T22:26:32.080Z,10.18
2022-08-16T22:29:04.522Z,11.73
2022-08-16T22:31:31.365Z,8.85
2022-08-16T22:33:58.570Z,10.73
2022-08-16T22:36:28.438Z,9.50
2022-08-16T22:39:01.324Z,9.02
2022-08-16T22:41:31.740Z,11.85
2022-08-16T22:43:59.478Z,15.10
2022-08-16T22:46:26.069Z,10.65
2022-08-16T22:48:52.907Z,10.00
2022-08-16T22:51:22.159Z,12.82
2022-08-16T22:53:48.770Z,12.38
2022-08-16T22:56:18.223Z,10.43
2022-08-16T22:58:46.241Z,13.30
2022-08-16T23:01:13.745Z,11.07
2022-08-16T23:03:40.948Z,14.02
2022-08-16T23:06:08.693Z,9.73
2022-08-16T23:08:39.205Z,12.32
2022-08-16T23:11:10.407Z,9.35
2022-08-16T23:13:38.044Z,9.63
2022-08-16T23:16:21.415Z,15.27
2022-08-16T23:18:49.552Z,11.05
2022-08-16T23:21:17.586Z,12.27
2022-08-16T23:23:47.224Z,10.77
2022-08-16T23:26:46.369Z,11.95
2022-08-16T23:29:04.309Z,12.07
2022-08-16T23:31:32.471Z,9.27
2022-08-16T23:33:59.878Z,13.70
2022-08-16T23:36:26.423Z,9.55
2022-08-16T23:38:53.013Z,9.95
2022-08-16T23:41:20.034Z,11.20
2022-08-16T23:43:46.533Z,12.98
2022-08-16T23:46:19.413Z,10.70
2022-08-16T23:49:59.451Z,10.88
2022-08-16T23:51:33.203Z,12.25
2022-08-16T23:54:00.609Z,10.95
2022-08-16T23:56:27.115Z,9.40
2022-08-16T23:59:02.281Z,9.65
